Time;durP1;ratioP1;P1;durP2;ratioP2;P2;SDS_P1;SDS_P2;PMS_P1;PMS_P2;Temp;Humidity;BMP_temperature;BMP_pressure;BME280_temperature;BME280_humidity;BME280_pressure;Samples;Min_cycle;Max_cycle;Signal;HPM_P1;HPM_P2
2022/07/12 00:00:58;;;;;;;1.70;1.60;;;21.20;66.20;21.90;97104.00;;;;5058421;28;20282;-79
2022/07/12 00:03:25;;;;;;;1.90;1.80;;;21.30;65.60;21.90;97101.00;;;;5067868;28;20568;-81
2022/07/12 00:05:52;;;;;;;2.63;1.70;;;21.20;65.50;21.90;97111.00;;;;5056370;28;20216;-82
2022/07/12 00:08:20;;;;;;;2.43;1.70;;;21.20;65.50;21.90;97112.00;;;;5050136;28;20716;-83
2022/07/12 00:10:47;;;;;;;1.90;1.80;;;21.20;65.60;21.90;97103.00;;;;5060424;28;20203;-83
2022/07/12 00:13:15;;;;;;;1.77;1.67;;;21.30;65.70;21.90;97103.00;;;;5058720;28;20743;-82
2022/07/12 00:15:42;;;;;;;1.87;1.73;;;21.20;65.60;21.90;97106.00;;;;5063045;28;20212;-82
2022/07/12 00:18:10;;;;;;;1.90;1.80;;;21.20;65.70;21.90;97102.00;;;;5069258;28;20244;-82
2022/07/12 00:20:38;;;;;;;1.40;1.40;;;21.20;65.70;21.90;97099.00;;;;5052355;28;20548;-81
2022/07/12 00:23:05;;;;;;;1.90;1.80;;;21.20;65.80;21.90;97101.00;;;;5054976;28;20220;-82
2022/07/12 00:25:34;;;;;;;1.87;1.77;;;21.20;65.80;21.90;97104.00;;;;5068113;28;20637;-81
2022/07/12 00:28:01;;;;;;;2.07;1.93;;;21.20;66.00;21.90;97108.00;;;;5051751;28;20236;-82
2022/07/12 00:30:28;;;;;;;1.90;1.80;;;21.20;66.00;21.90;97101.00;;;;5056631;28;20625;-82
2022/07/12 00:32:55;;;;;;;1.60;1.50;;;21.20;66.00;21.90;97104.00;;;;5061438;28;20284;-83
2022/07/12 00:35:22;;;;;;;2.10;1.90;;;21.30;66.00;21.90;97103.00;;;;5052721;28;20248;-82
2022/07/12 00:37:49;;;;;;;2.13;2.03;;;21.20;66.10;21.90;97108.00;;;;5053565;28;20248;-82
2022/07/12 00:40:17;;;;;;;1.90;1.80;;;21.20;66.10;21.80;97095.00;;;;5060703;28;20233;-82
2022/07/12 00:42:46;;;;;;;1.73;1.63;;;21.20;66.20;21.90;97095.00;;;;5067518;28;20271;-82
2022/07/12 00:45:13;;;;;;;1.60;1.50;;;21.20;66.40;21.80;97095.00;;;;5050336;28;20288;-82
2022/07/12 00:47:44;;;;;;;1.80;1.70;;;21.10;66.20;21.80;97098.00;;;;5061863;28;20788;-81
2022/07/12 00:50:16;;;;;;;1.60;1.50;;;21.10;66.30;21.80;97097.00;;;;5060571;28;20283;-82
2022/07/12 00:52:45;;;;;;;1.87;1.77;;;21.10;66.40;21.80;97094.00;;;;5056851;28;20279;-82
2022/07/12 00:55:14;;;;;;;1.50;1.40;;;21.10;67.10;21.80;97097.00;;;;5045946;28;20259;-82
2022/07/12 00:57:45;;;;;;;1.40;1.30;;;21.10;66.50;21.80;97093.00;;;;5053663;28;20217;-81
2022/07/12 01:00:17;;;;;;;1.73;1.63;;;21.10;66.70;21.80;97093.00;;;;5050770;28;20203;-82
2022/07/12 01:02:45;;;;;;;1.50;1.40;;;21.10;66.80;21.70;97102.00;;;;5063053;28;20279;-82
2022/07/12 01:05:12;;;;;;;1.60;1.50;;;21.10;66.70;21.70;97098.00;;;;5061718;28;20200;-82
2022/07/12 01:07:41;;;;;;;1.70;1.60;;;21.10;66.70;21.70;97100.00;;;;5055785;28;20304;-82
2022/07/12 01:10:09;;;;;;;1.70;1.60;;;21.00;66.70;21.70;97091.00;;;;5052089;28;20688;-82
2022/07/12 01:12:37;;;;;;;1.50;1.40;;;21.00;66.70;21.70;97101.00;;;;5056873;28;20199;-82
2022/07/12 01:15:08;;;;;;;1.77;1.67;;;21.00;66.70;21.70;97091.00;;;;5049761;28;20224;-81
2022/07/12 01:17:36;;;;;;;1.50;1.30;;;21.00;66.90;21.60;97094.00;;;;5056079;28;20264;-82
2022/07/12 01:20:07;;;;;;;1.43;1.33;;;21.00;66.80;21.60;97090.00;;;;5058844;28;20257;-82
2022/07/12 01:22:37;;;;;;;1.70;1.60;;;21.00;66.90;21.60;97088.00;;;;5055123;28;20235;-83
2022/07/12 01:25:07;;;;;;;1.93;1.70;;;20.90;66.90;21.60;97091.00;;;;5045670;28;20723;-82
2022/07/12 01:27:34;;;;;;;1.80;1.70;;;20.90;67.10;21.60;97088.00;;;;5050852;28;20204;-80
2022/07/12 01:30:03;;;;;;;1.63;1.53;;;20.90;67.20;21.60;97083.00;;;;5061525;28;20673;-82
2022/07/12 01:32:31;;;;;;;1.77;1.50;;;20.90;67.30;21.60;97084.00;;;;5054544;28;20200;-81
2022/07/12 01:35:03;;;;;;;2.13;1.77;;;20.90;67.30;21.50;97086.00;;;;5055632;28;20250;-79
2022/07/12 01:37:34;;;;;;;1.50;1.40;;;20.90;67.30;21.50;97079.00;;;;5053149;28;20205;-82
2022/07/12 01:40:04;;;;;;;1.90;1.80;;;20.90;67.30;21.50;97080.00;;;;5056621;28;20230;-82
2022/07/12 01:42:32;;;;;;;1.70;1.60;;;20.90;67.20;21.50;97072.00;;;;5043588;28;20209;-82
2022/07/12 01:45:00;;;;;;;1.20;1.20;;;20.90;67.30;21.40;97077.00;;;;5055434;28;20220;-82
2022/07/12 01:47:30;;;;;;;1.53;1.43;;;20.80;67.10;21.40;97077.00;;;;5055373;28;20625;-83
2022/07/12 01:49:58;;;;;;;1.40;1.30;;;20.80;67.10;21.40;97079.00;;;;5063820;28;20194;-82
2022/07/12 01:52:25;;;;;;;1.40;1.40;;;20.80;66.90;21.30;97075.00;;;;5061228;28;20231;-82
2022/07/12 01:54:55;;;;;;;1.57;1.50;;;20.70;66.70;21.30;97078.00;;;;5067434;28;20226;-82
2022/07/12 01:57:22;;;;;;;1.50;1.40;;;20.70;66.60;21.20;97080.00;;;;5063445;28;20644;-82
2022/07/12 01:59:52;;;;;;;1.60;1.50;;;20.60;66.40;21.10;97081.00;;;;5062871;28;20231;-82
2022/07/12 02:02:19;;;;;;;1.63;1.53;;;20.60;66.40;21.10;97070.00;;;;5047725;28;20203;-82
2022/07/12 02:04:46;;;;;;;1.53;1.43;;;20.50;66.30;21.00;97071.00;;;;5057313;28;20195;-82
2022/07/12 02:07:13;;;;;;;1.40;1.30;;;20.40;66.30;20.90;97072.00;;;;5062651;28;20287;-83
2022/07/12 02:09:41;;;;;;;1.40;1.30;;;20.40;66.40;20.80;97071.00;;;;5054650;28;20240;-81
2022/07/12 02:12:08;;;;;;;1.60;1.50;;;20.30;66.40;20.80;97081.00;;;;5049583;28;20207;-82
2022/07/12 02:14:35;;;;;;;1.40;1.30;;;20.20;66.40;20.70;97076.00;;;;5052091;28;20228;-81
2022/07/12 02:17:05;;;;;;;1.10;1.10;;;20.20;66.60;20.60;97076.00;;;;5056110;28;20291;-82
2022/07/12 02:19:32;;;;;;;1.43;1.33;;;20.10;66.90;20.60;97075.00;;;;5062668;28;20224;-81
2022/07/12 02:21:59;;;;;;;1.40;1.30;;;20.10;67.70;20.60;97080.00;;;;5052991;28;20224;-82
2022/07/12 02:24:26;;;;;;;1.00;1.00;;;20.00;67.00;20.50;97074.00;;;;5057808;28;20234;-82
2022/07/12 02:26:53;;;;;;;1.00;1.00;;;20.00;66.90;20.50;97075.00;;;;5053926;28;20284;-82
2022/07/12 02:29:20;;;;;;;2.13;1.20;;;19.90;66.70;20.40;97074.00;;;;5044738;28;20380;-82
2022/07/12 02:31:47;;;;;;;2.57;1.27;;;19.90;66.70;20.30;97075.00;;;;5067636;28;20284;-82
2022/07/12 02:34:16;;;;;;;1.20;1.20;;;19.80;66.60;20.20;97078.00;;;;5057557;28;20206;-82
2022/07/12 02:36:44;;;;;;;1.07;1.07;;;19.70;66.50;20.20;97074.00;;;;5053145;28;20244;-82
2022/07/12 02:39:11;;;;;;;1.20;1.20;;;19.70;66.50;20.10;97073.00;;;;5044623;28;20213;-82
2022/07/12 02:41:38;;;;;;;1.17;1.10;;;19.60;66.50;20.00;97081.00;;;;5065355;28;20250;-82
2022/07/12 02:44:05;;;;;;;1.07;1.03;;;19.50;66.60;20.00;97080.00;;;;5051147;28;20204;-80
2022/07/12 02:46:33;;;;;;;1.10;1.10;;;19.50;66.80;19.90;97078.00;;;;5050332;28;20236;-82
2022/07/12 02:49:00;;;;;;;1.40;1.23;;;19.40;66.80;19.80;97086.00;;;;5050690;28;20332;-81
2022/07/12 02:51:29;;;;;;;1.23;1.20;;;19.40;66.90;19.80;97079.00;;;;5059173;28;20279;-82
2022/07/12 02:53:56;;;;;;;1.40;1.30;;;19.30;67.00;19.70;97087.00;;;;5057460;28;20287;-82
2022/07/12 02:56:23;;;;;;;1.03;1.03;;;19.20;66.90;19.60;97080.00;;;;5048422;28;20263;-82
2022/07/12 02:58:50;;;;;;;1.10;1.10;;;19.20;67.10;19.60;97079.00;;;;5045742;28;20932;-82
2022/07/12 03:01:17;;;;;;;1.10;1.00;;;19.10;67.40;19.50;97081.00;;;;5045117;28;20220;-81
2022/07/12 03:03:45;;;;;;;1.10;1.10;;;19.10;67.70;19.50;97082.00;;;;5050931;28;20231;-82
2022/07/12 03:06:12;;;;;;;1.13;1.03;;;19.00;67.80;19.50;97083.00;;;;5048197;28;20354;-82
2022/07/12 03:08:41;;;;;;;1.07;1.07;;;19.00;68.10;19.50;97083.00;;;;5047437;28;20224;-81
2022/07/12 03:11:08;;;;;;;1.20;1.20;;;19.00;68.40;19.50;97089.00;;;;5048208;28;20204;-82
2022/07/12 03:13:35;;;;;;;1.30;1.20;;;19.00;68.50;19.50;97092.00;;;;5060441;28;20637;-81
2022/07/12 03:16:02;;;;;;;1.37;1.27;;;18.90;68.60;19.50;97090.00;;;;5059443;28;20275;-81
2022/07/12 03:18:30;;;;;;;1.47;1.20;;;18.90;68.80;19.50;97093.00;;;;5062322;28;20630;-81
2022/07/12 03:20:57;;;;;;;1.03;1.03;;;18.90;69.10;19.50;97095.00;;;;5058443;28;20252;-82
2022/07/12 03:23:25;;;;;;;1.30;1.07;;;18.90;69.20;19.50;97094.00;;;;5047163;28;20283;-81
2022/07/12 03:25:54;;;;;;;1.30;1.20;;;18.90;69.40;19.40;97094.00;;;;5051746;28;20279;-81
2022/07/12 03:28:21;;;;;;;1.03;1.03;;;18.90;69.60;19.40;97094.00;;;;5050760;28;20235;-80
2022/07/12 03:30:48;;;;;;;1.03;1.03;;;18.90;69.70;19.40;97096.00;;;;5061279;28;20220;-82
2022/07/12 03:33:15;;;;;;;1.20;1.10;;;18.90;69.70;19.40;97098.00;;;;5059599;28;20247;-82
2022/07/12 03:35:42;;;;;;;1.20;1.10;;;18.90;69.70;19.40;97102.00;;;;5056742;28;20228;-82
2022/07/12 03:38:09;;;;;;;1.27;1.17;;;18.90;69.70;19.40;97102.00;;;;5044214;28;20300;-82
2022/07/12 03:40:36;;;;;;;1.33;1.23;;;18.90;69.80;19.40;97103.00;;;;5060466;28;20223;-81
2022/07/12 03:43:05;;;;;;;1.00;1.00;;;18.90;69.90;19.40;97102.00;;;;5057061;28;20284;-81
2022/07/12 03:45:32;;;;;;;1.10;1.10;;;18.90;70.10;19.40;97104.00;;;;5058815;28;20721;-82
2022/07/12 03:47:59;;;;;;;1.00;1.00;;;18.90;70.10;19.40;97103.00;;;;5063377;28;20211;-81
2022/07/12 03:50:26;;;;;;;1.50;1.17;;;18.90;70.10;19.40;97112.00;;;;5055766;28;20288;-82
2022/07/12 03:52:53;;;;;;;1.60;1.20;;;18.90;70.10;19.40;97107.00;;;;5056281;28;20230;-82
2022/07/12 03:55:20;;;;;;;1.10;1.10;;;18.90;70.10;19.30;97117.00;;;;5052309;28;20312;-81
2022/07/12 03:57:49;;;;;;;1.03;1.03;;;18.90;70.10;19.30;97113.00;;;;5060198;28;20295;-82
2022/07/12 04:00:18;;;;;;;1.00;1.00;;;18.80;70.10;19.30;97124.00;;;;5057839;28;20737;-81
2022/07/12 04:02:45;;;;;;;1.20;1.20;;;18.80;70.10;19.30;97112.00;;;;5050341;28;20196;-82
2022/07/12 04:05:13;;;;;;;1.10;1.10;;;18.80;70.10;19.30;97114.00;;;;5051540;28;20193;-82
2022/07/12 04:07:41;;;;;;;1.37;1.30;;;18.80;70.10;19.30;97116.00;;;;5049596;28;20219;-82
2022/07/12 04:10:10;;;;;;;1.33;1.10;;;18.80;70.20;19.30;97114.00;;;;5053591;28;20200;-82
2022/07/12 04:12:37;;;;;;;1.27;1.17;;;18.80;70.20;19.30;97115.00;;;;5059910;28;20580;-81
2022/07/12 04:15:06;;;;;;;1.20;1.20;;;18.80;70.40;19.30;97116.00;;;;5055523;28;20242;-82
2022/07/12 04:17:35;;;;;;;1.63;1.43;;;18.80;70.40;19.30;97116.00;;;;5053595;28;20220;-82
2022/07/12 04:20:02;;;;;;;1.30;1.30;;;18.70;70.50;19.30;97114.00;;;;5062413;28;20224;-83
2022/07/12 04:22:29;;;;;;;1.20;1.10;;;18.80;70.60;19.30;97118.00;;;;5044697;28;20518;-83
2022/07/12 04:24:56;;;;;;;1.40;1.30;;;18.80;70.70;19.30;97111.00;;;;5056690;28;20275;-83
2022/07/12 04:27:26;;;;;;;2.10;1.20;;;18.80;70.80;19.40;97122.00;;;;5052607;28;20279;-83
2022/07/12 04:29:53;;;;;;;1.70;1.10;;;18.80;70.80;19.40;97123.00;;;;5045794;28;20193;-82
2022/07/12 04:32:20;;;;;;;1.20;1.10;;;18.80;70.90;19.40;97116.00;;;;5059411;28;20636;-82
2022/07/12 04:34:49;;;;;;;1.60;1.50;;;18.80;70.90;19.40;97116.00;;;;5051331;28;20291;-82
2022/07/12 04:37:16;;;;;;;3.03;1.43;;;18.80;71.10;19.40;97127.00;;;;5053184;28;20312;-82
2022/07/12 04:39:43;;;;;;;1.67;1.30;;;18.80;71.10;19.40;97127.00;;;;5057156;28;20244;-82
2022/07/12 04:42:10;;;;;;;1.50;1.40;;;18.80;71.10;19.40;97121.00;;;;5055289;28;20216;-83
2022/07/12 04:44:37;;;;;;;1.30;1.30;;;18.80;71.20;19.40;97125.00;;;;5057705;28;20289;-83
2022/07/12 04:47:04;;;;;;;1.23;1.13;;;18.80;71.30;19.40;97126.00;;;;5058747;28;20228;-81
2022/07/12 04:49:33;;;;;;;1.43;1.33;;;18.80;71.30;19.50;97138.00;;;;5054095;28;20248;-83
2022/07/12 04:52:01;;;;;;;1.50;1.50;;;18.80;71.50;19.50;97128.00;;;;5046515;28;20199;-83
2022/07/12 04:54:28;;;;;;;1.40;1.30;;;18.90;71.60;19.50;97131.00;;;;5059635;28;20283;-83
2022/07/12 04:56:56;;;;;;;1.43;1.33;;;18.90;71.60;19.60;97131.00;;;;5059352;28;20217;-81
2022/07/12 04:59:23;;;;;;;1.47;1.37;;;18.90;71.70;19.60;97136.00;;;;5059662;28;20303;-82
2022/07/12 05:01:50;;;;;;;1.17;1.17;;;18.90;71.70;19.70;97137.00;;;;5060259;28;20204;-81
2022/07/12 05:04:17;;;;;;;1.30;1.20;;;19.00;71.70;19.70;97138.00;;;;5055819;28;20279;-82
2022/07/12 05:06:44;;;;;;;1.30;1.30;;;19.00;71.70;19.80;97137.00;;;;5059330;28;20204;-83
2022/07/12 05:09:13;;;;;;;1.37;1.27;;;19.10;71.70;19.80;97136.00;;;;5048380;28;20299;-83
2022/07/12 05:11:40;;;;;;;1.60;1.50;;;19.10;71.70;19.90;97135.00;;;;5063449;28;20291;-83
2022/07/12 05:14:07;;;;;;;1.40;1.40;;;19.20;71.70;19.90;97140.00;;;;5059351;28;20280;-82
2022/07/12 05:16:34;;;;;;;1.67;1.57;;;19.20;71.70;19.90;97144.00;;;;5065376;28;20318;-81
2022/07/12 05:19:02;;;;;;;1.40;1.30;;;19.30;71.70;20.00;97146.00;;;;5058310;28;20211;-81
2022/07/12 05:21:29;;;;;;;1.43;1.33;;;19.30;71.70;20.00;97147.00;;;;5058959;28;20211;-83
2022/07/12 05:23:56;;;;;;;1.77;1.30;;;19.30;71.70;20.00;97142.00;;;;5061564;28;20336;-82
2022/07/12 05:26:24;;;;;;;1.30;1.17;;;19.40;71.70;20.10;97149.00;;;;5051688;28;20233;-83
2022/07/12 05:28:52;;;;;;;1.60;1.50;;;19.40;71.70;20.10;97141.00;;;;5076056;22;20225;-83
2022/07/12 05:31:24;;;;;;;1.53;1.20;;;19.40;71.60;20.10;97146.00;;;;5073135;28;20340;-84
2022/07/12 05:33:51;;;;;;;1.30;1.20;;;19.50;71.70;20.20;97147.00;;;;5065157;28;20196;-82
2022/07/12 05:36:19;;;;;;;1.07;1.00;;;19.50;71.70;20.20;97151.00;;;;5064132;28;20771;-83
2022/07/12 05:38:46;;;;;;;0.93;0.73;;;19.50;71.60;20.20;97157.00;;;;5057400;28;20579;-83
2022/07/12 05:41:13;;;;;;;1.00;0.70;;;19.60;71.60;20.20;97152.00;;;;5062393;28;20568;-82
2022/07/12 05:43:43;;;;;;;0.97;0.63;;;19.60;71.40;20.30;97163.00;;;;5064367;28;20609;-83
2022/07/12 05:46:11;;;;;;;0.50;0.50;;;19.60;71.30;20.30;97164.00;;;;5057718;28;20212;-83
2022/07/12 05:48:39;;;;;;;0.63;0.63;;;19.60;71.20;20.30;97164.00;;;;5060739;28;20569;-83
2022/07/12 05:53:54;;;;;;;0.70;0.70;;;19.70;71.10;20.40;97172.00;;;;5060808;28;20217;-83
2022/07/12 05:56:23;;;;;;;0.40;0.40;;;19.70;70.90;20.40;97169.00;;;;5062724;28;20219;-83
2022/07/12 05:58:52;;;;;;;0.50;0.50;;;19.80;71.00;20.40;97174.00;;;;5056602;28;20265;-83
2022/07/12 06:01:19;;;;;;;0.33;0.33;;;19.80;70.90;20.40;97173.00;;;;5061594;28;20208;-83
2022/07/12 06:03:47;;;;;;;0.50;0.50;;;19.80;70.70;20.50;97180.00;;;;5040745;28;20794;-83
2022/07/12 06:06:14;;;;;;;0.43;0.43;;;19.80;70.80;20.50;97181.00;;;;5069385;28;20620;-83
2022/07/12 06:08:42;;;;;;;0.60;0.57;;;19.90;70.70;20.50;97178.00;;;;5046245;28;20227;-83
2022/07/12 06:11:09;;;;;;;0.60;0.60;;;19.90;70.50;20.60;97179.00;;;;5046109;28;20207;-83
2022/07/12 06:13:36;;;;;;;0.50;0.50;;;20.00;70.40;20.60;97186.00;;;;5055653;28;20197;-83
2022/07/12 06:16:10;;;;;;;0.40;0.40;;;20.00;70.20;20.60;97177.00;;;;5056869;28;20286;-83
2022/07/12 06:18:37;;;;;;;0.37;0.37;;;20.00;70.20;20.70;97185.00;;;;5056317;28;20274;-83
2022/07/12 06:21:05;;;;;;;1.33;0.50;;;20.10;70.20;20.80;97182.00;;;;5052275;28;20251;-83
2022/07/12 06:23:32;;;;;;;0.50;0.50;;;20.10;70.00;20.90;97191.00;;;;5054867;28;20351;-84
2022/07/12 06:25:59;;;;;;;0.50;0.40;;;20.20;69.80;21.00;97190.00;;;;5055446;28;20201;-83
2022/07/12 06:28:26;;;;;;;0.30;0.30;;;20.20;69.60;21.10;97187.00;;;;5054258;28;20221;-84
2022/07/12 06:30:54;;;;;;;1.13;0.40;;;20.30;69.50;21.20;97186.00;;;;5052973;28;20280;-83
2022/07/12 06:33:22;;;;;;;0.33;0.33;;;20.40;69.20;21.30;97179.00;;;;5053804;28;20623;-83
2022/07/12 06:35:50;;;;;;;0.40;0.40;;;20.50;68.80;21.40;97187.00;;;;5055062;28;20643;-83
2022/07/12 06:38:18;;;;;;;0.30;0.30;;;20.60;68.50;21.50;97188.00;;;;5052402;28;20223;-83
2022/07/12 06:40:47;;;;;;;0.23;0.23;;;20.70;68.20;21.50;97186.00;;;;5054757;28;20196;-83
2022/07/12 06:43:15;;;;;;;0.40;0.40;;;20.80;67.90;21.60;97190.00;;;;5054591;28;20208;-83
2022/07/12 06:45:42;;;;;;;0.43;0.43;;;20.80;67.70;21.60;97189.00;;;;5056145;28;20200;-83
2022/07/12 06:48:09;;;;;;;0.40;0.40;;;20.90;67.30;21.70;97184.00;;;;5055040;28;20219;-83
2022/07/12 06:50:38;;;;;;;0.30;0.30;;;20.90;67.10;21.80;97178.00;;;;5054405;28;20203;-83
2022/07/12 06:53:05;;;;;;;0.30;0.30;;;21.00;67.10;21.80;97172.00;;;;5053450;28;20262;-83
2022/07/12 06:55:32;;;;;;;0.57;0.57;;;21.10;67.30;21.90;97178.00;;;;5056346;28;20189;-83
2022/07/12 06:57:59;;;;;;;1.00;0.30;;;21.20;67.00;22.00;97178.00;;;;5070807;22;20219;-80
2022/07/12 07:00:26;;;;;;;0.50;0.50;;;21.20;66.50;22.00;97183.00;;;;5067662;28;20242;-81
2022/07/12 07:02:54;;;;;;;0.40;0.40;;;21.30;66.40;22.10;97181.00;;;;5072356;28;20227;-81
2022/07/12 07:05:21;;;;;;;1.17;0.53;;;21.40;66.00;22.10;97183.00;;;;5071737;28;20220;-80
2022/07/12 07:07:49;;;;;;;0.20;0.20;;;21.40;65.60;22.20;97184.00;;;;5072107;28;20317;-80
2022/07/12 07:10:17;;;;;;;0.40;0.40;;;21.50;65.50;22.30;97183.00;;;;5069447;28;20283;-80
2022/07/12 07:12:44;;;;;;;0.80;0.43;;;21.60;65.50;22.50;97188.00;;;;5089233;22;20255;-86
2022/07/12 07:15:13;;;;;;;0.30;0.30;;;21.70;65.40;22.60;97197.00;;;;5079563;28;20184;-86
2022/07/12 07:17:42;;;;;;;0.57;0.47;;;21.80;65.00;22.80;97187.00;;;;5077075;28;20286;-86
2022/07/12 07:20:11;;;;;;;0.40;0.33;;;21.90;64.70;23.00;97186.00;;;;5080437;28;20192;-86
2022/07/12 07:22:38;;;;;;;0.37;0.37;;;22.00;64.90;23.20;97179.00;;;;5078908;28;20543;-86
2022/07/12 07:25:08;;;;;;;0.27;0.27;;;22.20;64.80;23.40;97188.00;;;;5077715;28;20189;-86
2022/07/12 07:27:36;;;;;;;0.30;0.30;;;22.30;64.30;23.50;97183.00;;;;5082278;28;20215;-86
2022/07/12 07:32:48;;;;;;;0.30;0.30;;;22.60;63.70;23.90;97198.00;;;;5084709;28;20203;-86
2022/07/12 07:35:15;;;;;;;0.30;0.30;;;22.80;63.60;24.10;97194.00;;;;5076473;28;20561;-87
2022/07/12 07:37:42;;;;;;;0.40;0.30;;;23.00;63.20;24.20;97193.00;;;;5076603;28;20259;-87
2022/07/12 07:40:11;;;;;;;0.20;0.20;;;23.10;62.70;24.40;97210.00;;;;5083564;28;20198;-87
2022/07/12 07:42:39;;;;;;;0.40;0.40;;;23.30;62.00;24.60;97201.00;;;;5080111;28;20647;-87
2022/07/12 07:45:08;;;;;;;0.37;0.30;;;23.50;61.70;24.80;97205.00;;;;5078164;28;20678;-86
2022/07/12 07:47:45;;;;;;;0.40;0.30;;;23.60;61.90;24.90;97203.00;;;;5076210;28;20593;-86
2022/07/12 07:50:12;;;;;;;0.20;0.20;;;23.80;60.50;25.10;97207.00;;;;5079441;28;20208;-86
2022/07/12 07:52:39;;;;;;;0.20;0.20;;;24.00;60.60;25.30;97210.00;;;;5077782;28;20196;-86
2022/07/12 07:55:08;;;;;;;0.10;0.10;;;24.10;60.00;25.40;97205.00;;;;5084319;28;20223;-87
2022/07/12 07:57:38;;;;;;;0.20;0.20;;;24.30;59.70;25.60;97207.00;;;;5081232;28;20276;-86
2022/07/12 08:00:07;;;;;;;0.40;0.40;;;24.40;59.50;25.70;97208.00;;;;5077623;28;20202;-86
2022/07/12 08:02:34;;;;;;;0.17;0.17;;;24.60;59.20;25.90;97212.00;;;;5081662;28;20590;-86
2022/07/12 08:05:02;;;;;;;0.20;0.20;;;24.70;58.90;26.00;97213.00;;;;5079760;28;20194;-86
2022/07/12 08:07:29;;;;;;;0.93;0.20;;;24.80;58.40;26.20;97212.00;;;;5077861;28;20214;-86
2022/07/12 08:09:57;;;;;;;0.33;0.33;;;25.00;58.00;26.30;97221.00;;;;5075512;28;20203;-86
2022/07/12 08:12:29;;;;;;;0.30;0.30;;;25.10;56.70;26.50;97211.00;;;;5074428;28;20297;-86
2022/07/12 08:14:58;;;;;;;1.70;0.50;;;25.20;56.50;26.60;97214.00;;;;5077753;28;20249;-87
2022/07/12 08:17:26;;;;;;;0.20;0.20;;;25.40;56.50;26.70;97212.00;;;;5081190;28;20235;-87
2022/07/12 08:19:55;;;;;;;1.40;0.30;;;25.50;55.90;26.80;97209.00;;;;5080191;28;20577;-86
2022/07/12 08:22:27;;;;;;;0.23;0.23;;;25.60;55.90;27.00;97223.00;;;;5080168;28;20228;-86
2022/07/12 08:24:56;;;;;;;0.30;0.30;;;25.70;55.10;27.10;97222.00;;;;5079990;28;20250;-87
2022/07/12 08:27:29;;;;;;;0.10;0.10;;;25.90;55.40;27.30;97214.00;;;;5083421;28;20648;-86
2022/07/12 08:29:59;;;;;;;0.30;0.30;;;26.00;54.70;27.40;97213.00;;;;5080185;28;20223;-87
2022/07/12 08:32:27;;;;;;;0.30;0.30;;;26.10;53.90;27.50;97219.00;;;;5080514;28;20195;-86
2022/07/12 08:34:55;;;;;;;0.20;0.20;;;26.20;54.00;27.70;97222.00;;;;5084262;28;20886;-87
2022/07/12 08:37:23;;;;;;;1.03;0.30;;;26.30;53.90;27.80;97227.00;;;;5075528;28;20292;-87
2022/07/12 08:39:51;;;;;;;0.10;0.10;;;26.50;53.30;27.90;97226.00;;;;5082226;28;20253;-87
2022/07/12 08:42:19;;;;;;;1.07;0.30;;;26.60;53.10;28.10;97228.00;;;;5073395;28;20202;-87
2022/07/12 08:44:57;;;;;;;0.30;0.30;;;26.70;53.20;28.10;97233.00;;;;5078071;28;20209;-87
2022/07/12 08:47:24;;;;;;;0.20;0.20;;;26.80;51.80;28.20;97228.00;;;;5081340;28;20631;-87
2022/07/12 08:50:14;;;;;;;0.20;0.20;;;26.90;52.10;28.30;97231.00;;;;5077576;28;20249;-86
2022/07/12 08:52:43;;;;;;;0.30;0.30;;;27.00;50.50;28.30;97227.00;;;;5074965;28;20195;-86
2022/07/12 08:55:23;;;;;;;0.20;0.20;;;27.00;51.20;28.40;97226.00;;;;5072995;28;20212;-87
2022/07/12 08:57:54;;;;;;;0.20;0.17;;;27.10;51.10;28.50;97227.00;;;;5079257;28;21132;-87
2022/07/12 09:00:24;;;;;;;0.20;0.20;;;27.20;51.20;28.60;97234.00;;;;5077698;28;20295;-86
2022/07/12 09:02:55;;;;;;;0.20;0.20;;;27.30;50.70;28.70;97231.00;;;;5082220;28;20199;-86
2022/07/12 09:05:25;;;;;;;0.30;0.30;;;27.30;49.80;28.80;97232.00;;;;5080204;28;20584;-87
2022/07/12 09:08:02;;;;;;;0.32;0.30;;;27.40;49.60;28.90;97227.00;;;;5077222;28;20222;-87
2022/07/12 09:10:29;;;;;;;0.20;0.20;;;27.50;49.80;29.10;97232.00;;;;5077486;28;20290;-87
2022/07/12 09:12:56;;;;;;;0.25;0.10;;;27.60;49.70;29.20;97232.00;;;;5083018;28;20187;-87
2022/07/12 09:18:28;;;;;;;0.30;0.30;;;27.90;48.80;29.40;97229.00;;;;5082425;28;20234;-87
2022/07/12 09:20:55;;;;;;;0.20;0.20;;;28.00;48.90;29.60;97230.00;;;;5080351;28;20215;-87
2022/07/12 09:23:22;;;;;;;0.28;0.28;;;28.10;49.30;29.80;97232.00;;;;5077624;28;20199;-86
2022/07/12 09:25:50;;;;;;;0.30;0.30;;;28.20;49.30;29.90;97224.00;;;;5079186;28;20265;-86
2022/07/12 09:28:17;;;;;;;1.00;0.30;;;28.30;48.90;30.00;97239.00;;;;5075400;28;20219;-87
2022/07/12 09:30:54;;;;;;;0.30;0.30;;;28.40;49.00;30.00;97228.00;;;;5081713;28;20195;-87
2022/07/12 09:36:08;;;;;;;0.32;0.32;;;28.60;48.20;30.30;97237.00;;;;5082664;28;20201;-87
2022/07/12 09:38:37;;;;;;;0.40;0.40;;;28.70;48.00;30.30;97239.00;;;;5079598;28;20212;-87
2022/07/12 09:41:05;;;;;;;0.30;0.30;;;28.80;47.70;30.40;97246.00;;;;5082845;28;20199;-87
2022/07/12 09:43:33;;;;;;;0.30;0.30;;;28.80;46.90;30.40;97248.00;;;;5083233;28;20214;-87
2022/07/12 09:46:02;;;;;;;0.28;0.28;;;28.80;47.30;30.40;97248.00;;;;5083249;28;20325;-85
2022/07/12 09:48:30;;;;;;;0.60;0.50;;;28.90;47.30;30.40;97246.00;;;;5072787;28;20218;-85
2022/07/12 09:51:08;;;;;;;0.30;0.30;;;28.90;46.70;30.50;97242.00;;;;5079380;28;20198;-89
2022/07/12 09:53:43;;;;;;;0.65;0.50;;;28.90;45.80;30.80;97247.00;;;;5086631;28;20184;-89
2022/07/12 09:56:13;;;;;;;0.57;0.38;;;28.90;46.60;31.00;97243.00;;;;5083523;28;20575;-89
2022/07/12 09:58:48;;;;;;;0.47;0.40;;;29.10;46.70;31.00;97254.00;;;;5077625;28;20215;-89
2022/07/12 10:01:21;;;;;;;0.30;0.30;;;29.20;46.10;30.90;97255.00;;;;5089134;28;20183;-89
2022/07/12 10:03:50;;;;;;;0.30;0.30;;;29.20;45.30;30.80;97252.00;;;;5081099;28;20191;-89
2022/07/12 10:06:25;;;;;;;0.20;0.20;;;29.20;45.40;30.60;97254.00;;;;5080506;28;20203;-89
2022/07/12 10:08:59;;;;;;;0.73;0.25;;;29.20;44.70;30.50;97256.00;;;;5077265;28;20262;-88
2022/07/12 10:11:27;;;;;;;0.30;0.30;;;29.20;45.00;30.60;97262.00;;;;5078627;28;20442;-89
2022/07/12 10:13:55;;;;;;;0.30;0.30;;;29.20;44.70;30.60;97272.00;;;;5077074;28;20203;-89
2022/07/12 10:16:33;;;;;;;0.30;0.30;;;29.30;45.40;30.70;97263.00;;;;5081109;28;20218;-90
2022/07/12 10:19:29;;;;;;;0.30;0.30;;;29.30;45.10;30.80;97271.00;;;;5081328;28;20242;-89
2022/07/12 10:22:00;;;;;;;0.57;0.32;;;29.40;44.40;30.80;97268.00;;;;5069740;28;20672;-89
2022/07/12 10:24:47;;;;;;;0.47;0.30;;;29.40;44.70;30.70;97265.00;;;;5083148;28;20196;-89
2022/07/12 10:27:34;;;;;;;0.40;0.40;;;29.50;44.00;30.70;97262.00;;;;5078108;28;20706;-89
2022/07/12 10:30:20;;;;;;;0.28;0.28;;;29.50;43.80;30.60;97256.00;;;;5077995;28;20624;-89
2022/07/12 10:32:53;;;;;;;0.20;0.20;;;29.50;43.60;30.60;97256.00;;;;5075849;28;20562;-89
2022/07/12 10:35:25;;;;;;;0.90;0.50;;;29.60;44.20;30.80;97247.00;;;;5076758;28;20188;-90
2022/07/12 10:38:22;;;;;;;0.22;0.22;;;29.80;44.80;31.00;97257.00;;;;5075488;28;20296;-88
2022/07/12 10:40:51;;;;;;;0.30;0.30;;;30.00;44.50;31.10;97261.00;;;;5078108;28;20192;-88
2022/07/12 10:44:04;;;;;;;0.40;0.40;;;30.20;43.70;31.00;97263.00;;;;5080129;28;20256;-89
2022/07/12 10:46:23;;;;;;;0.30;0.30;;;30.30;43.10;30.90;97262.00;;;;5081271;28;20194;-89
2022/07/12 10:49:08;;;;;;;0.45;0.30;;;30.30;42.40;30.80;97255.00;;;;5083423;28;20246;-88
2022/07/12 10:51:35;;;;;;;0.95;0.10;;;30.20;42.50;30.80;97260.00;;;;5079048;28;20214;-89
2022/07/12 10:54:22;;;;;;;0.20;0.20;;;30.20;43.00;30.90;97249.00;;;;5082490;28;20188;-89
2022/07/12 10:56:57;;;;;;;0.55;0.40;;;30.30;42.90;31.00;97246.00;;;;5081389;28;20218;-89
2022/07/12 10:59:30;;;;;;;0.47;0.30;;;30.30;43.20;31.10;97248.00;;;;5083347;28;20683;-89
2022/07/12 11:01:58;;;;;;;0.40;0.40;;;30.40;43.00;31.20;97243.00;;;;5077944;28;20218;-90
2022/07/12 11:04:28;;;;;;;0.30;0.30;;;30.50;42.50;31.20;97247.00;;;;5081666;28;20202;-88
2022/07/12 11:06:58;;;;;;;0.20;0.20;;;30.50;42.10;31.10;97252.00;;;;5076845;28;20605;-89
2022/07/12 11:09:28;;;;;;;0.40;0.40;;;30.40;42.10;31.10;97257.00;;;;5078265;28;20322;-89
2022/07/12 11:11:55;;;;;;;0.20;0.20;;;30.30;41.60;31.00;97257.00;;;;5082752;28;20230;-88
2022/07/12 11:14:25;;;;;;;0.20;0.20;;;30.30;41.50;30.90;97258.00;;;;5077481;28;20234;-89